createdAt,value
2018-09-28T00:00:15.787Z,16.32
2018-09-28T00:02:44.170Z,17.65
2018-09-28T00:05:12.517Z,15.72
2018-09-28T00:07:42.076Z,17.27
2018-09-28T00:10:10.470Z,18.52
2018-09-28T00:12:38.831Z,17.82
2018-09-28T00:15:07.209Z,16.87
2018-09-28T00:17:35.570Z,17.35
2018-09-28T00:20:03.928Z,14.50
2018-09-28T00:22:32.317Z,18.42
2018-09-28T00:25:00.676Z,16.30
2018-09-28T00:28:08.735Z,18.57
2018-09-28T00:30:37.198Z,18.92
2018-09-28T00:33:05.574Z,19.60
2018-09-28T00:35:33.951Z,21.57
2018-09-28T00:38:02.544Z,19.20
2018-09-28T00:40:30.880Z,21.15
2018-09-28T00:42:59.248Z,18.82
2018-09-28T00:45:27.599Z,20.10
2018-09-28T00:47:55.928Z,17.95
2018-09-28T00:50:24.316Z,22.27
2018-09-28T00:52:52.713Z,24.02
2018-09-28T00:55:21.117Z,18.57
2018-09-28T00:57:49.484Z,23.07
2018-09-28T01:00:18.896Z,24.00
2018-09-28T01:02:47.236Z,23.30
2018-09-28T01:05:15.641Z,21.07
2018-09-28T01:07:44.084Z,25.05
2018-09-28T01:10:12.517Z,21.93
2018-09-28T01:12:40.857Z,22.07
2018-09-28T01:15:09.201Z,23.12
2018-09-28T01:17:37.996Z,18.53
2018-09-28T01:20:06.658Z,22.13
2018-09-28T01:22:35.089Z,19.87
2018-09-28T01:25:05.616Z,17.92
2018-09-28T01:27:33.954Z,19.90
2018-09-28T01:30:02.328Z,19.60
2018-09-28T01:32:30.888Z,17.52
2018-09-28T01:34:59.268Z,16.53
2018-09-28T01:37:27.600Z,15.85
2018-09-28T01:39:55.972Z,20.68
2018-09-28T01:42:24.363Z,19.77
2018-09-28T01:44:52.744Z,15.77
2018-09-28T01:47:21.077Z,16.50
2018-09-28T01:49:49.442Z,18.80
2018-09-28T01:52:17.823Z,17.90
2018-09-28T01:54:46.180Z,18.47
2018-09-28T01:57:14.557Z,18.85
2018-09-28T01:59:42.962Z,20.45
2018-09-28T02:02:11.353Z,16.30
2018-09-28T02:04:39.708Z,21.07
2018-09-28T02:07:08.078Z,19.55
2018-09-28T02:09:36.468Z,22.93
2018-09-28T02:12:04.815Z,21.20
2018-09-28T02:14:33.187Z,23.25
2018-09-28T02:17:01.528Z,19.30
2018-09-28T02:19:29.929Z,20.90
2018-09-28T02:21:58.264Z,22.50
2018-09-28T02:24:26.610Z,21.17
2018-09-28T02:26:54.960Z,22.13
2018-09-28T02:29:23.384Z,22.62
2018-09-28T02:31:51.736Z,20.57
2018-09-28T02:34:20.111Z,20.75
2018-09-28T02:36:48.550Z,24.82
2018-09-28T02:39:16.906Z,21.23
2018-09-28T02:41:45.277Z,20.67
2018-09-28T02:44:13.630Z,21.37
2018-09-28T02:46:42.013Z,25.85
2018-09-28T02:49:10.370Z,20.12
2018-09-28T02:51:38.745Z,18.37
2018-09-28T02:54:07.094Z,22.42
2018-09-28T02:56:35.522Z,19.65
2018-09-28T02:59:03.936Z,20.77
2018-09-28T03:01:32.297Z,20.97
2018-09-28T03:04:00.667Z,18.10
2018-09-28T03:06:29.326Z,16.90
2018-09-28T03:08:57.919Z,19.60
2018-09-28T03:11:26.322Z,18.12
2018-09-28T03:13:54.734Z,20.50
2018-09-28T03:16:23.078Z,21.37
2018-09-28T03:18:51.484Z,20.35
2018-09-28T03:21:19.891Z,19.57
2018-09-28T03:23:48.270Z,20.82
2018-09-28T03:26:16.600Z,22.67
2018-09-28T03:28:44.954Z,23.50
2018-09-28T03:31:13.270Z,23.40
2018-09-28T03:33:41.679Z,25.90
2018-09-28T03:36:10.099Z,21.62
2018-09-28T03:38:39.002Z,23.20
2018-09-28T03:41:07.320Z,23.65
2018-09-28T03:43:35.773Z,25.40
2018-09-28T03:46:04.124Z,22.05
2018-09-28T03:48:32.719Z,24.05
2018-09-28T03:51:01.127Z,25.30
2018-09-28T03:53:29.454Z,24.95
2018-09-28T03:55:57.799Z,31.27
2018-09-28T03:58:26.187Z,24.55
2018-09-28T04:00:54.558Z,25.02
2018-09-28T04:03:22.907Z,25.52
2018-09-28T04:05:51.281Z,25.10
2018-09-28T04:08:19.758Z,29.10
2018-09-28T04:10:48.105Z,30.40
2018-09-28T04:13:16.424Z,24.32
2018-09-28T04:15:44.795Z,27.48
2018-09-28T04:18:35.600Z,25.90
2018-09-28T04:21:06.339Z,27.35
2018-09-28T04:23:34.672Z,28.80
2018-09-28T04:26:03.064Z,28.10
2018-09-28T04:28:31.415Z,27.73
2018-09-28T04:31:00.884Z,28.17
2018-09-28T04:33:29.248Z,30.57
2018-09-28T04:35:57.654Z,29.55
2018-09-28T04:38:26.080Z,29.35
2018-09-28T04:40:54.415Z,28.83
2018-09-28T04:43:22.805Z,31.95
2018-09-28T04:45:51.402Z,29.57
2018-09-28T04:48:19.762Z,37.23
2018-09-28T04:50:48.118Z,37.85
2018-09-28T04:53:16.476Z,29.60
2018-09-28T04:55:45.976Z,30.50
2018-09-28T04:58:14.663Z,33.75
2018-09-28T05:00:42.993Z,31.77
2018-09-28T05:03:11.409Z,39.90
2018-09-28T05:05:39.835Z,34.55
2018-09-28T05:08:08.227Z,31.62
2018-09-28T05:10:36.619Z,35.70
2018-09-28T05:13:05.134Z,33.42
2018-09-28T05:15:33.463Z,31.77
2018-09-28T05:18:02.635Z,33.70
2018-09-28T05:20:30.985Z,40.65
2018-09-28T05:22:59.339Z,33.73
2018-09-28T05:25:27.822Z,35.00
2018-09-28T05:27:56.159Z,36.05
2018-09-28T05:30:24.551Z,35.45
2018-09-28T05:32:52.979Z,39.37
2018-09-28T05:35:21.280Z,40.33
2018-09-28T05:37:49.631Z,37.30
2018-09-28T05:40:18.077Z,38.17
2018-09-28T05:42:47.306Z,39.35
2018-09-28T05:45:15.797Z,42.95
2018-09-28T05:47:44.348Z,42.70
2018-09-28T05:50:12.736Z,47.30
2018-09-28T05:52:41.106Z,48.35
2018-09-28T05:55:09.500Z,38.42
2018-09-28T05:57:37.868Z,41.77
2018-09-28T06:00:11.520Z,48.23
2018-09-28T06:02:45.310Z,45.78
2018-09-28T06:05:19.176Z,49.27
2018-09-28T06:07:47.525Z,50.87
2018-09-28T06:10:15.987Z,48.28
2018-09-28T06:12:44.335Z,46.98
2018-09-28T06:15:12.653Z,43.05
2018-09-28T06:17:41.036Z,52.10
2018-09-28T06:20:09.400Z,49.80
2018-09-28T06:22:37.792Z,51.92
2018-09-28T06:25:06.581Z,49.08
2018-09-28T06:27:34.936Z,52.93
2018-09-28T06:30:03.373Z,53.23
2018-09-28T06:32:31.719Z,54.58
2018-09-28T06:35:04.024Z,56.63
2018-09-28T06:37:33.210Z,58.70
2018-09-28T06:40:01.507Z,49.40
2018-09-28T06:42:29.922Z,49.73
2018-09-28T06:44:58.284Z,52.78
2018-09-28T06:47:26.669Z,53.40
2018-09-28T06:49:55.060Z,54.10
2018-09-28T06:52:23.412Z,52.73
2018-09-28T06:54:51.788Z,50.00
2018-09-28T06:57:20.625Z,49.65
2018-09-28T06:59:49.074Z,50.70
2018-09-28T07:02:17.403Z,53.77
2018-09-28T07:04:45.956Z,48.75
2018-09-28T07:07:14.485Z,48.78
2018-09-28T07:09:42.825Z,43.95
2018-09-28T07:12:11.255Z,48.70
2018-09-28T07:14:39.593Z,48.17
2018-09-28T07:17:08.092Z,45.10
2018-09-28T07:19:36.653Z,46.08
2018-09-28T07:22:05.088Z,40.63
2018-09-28T07:24:33.517Z,37.50
2018-09-28T07:27:01.819Z,37.42
2018-09-28T07:29:30.179Z,39.38
2018-09-28T07:31:58.533Z,31.50
2018-09-28T07:34:26.961Z,30.02
2018-09-28T07:36:55.409Z,34.95
2018-09-28T07:39:23.766Z,30.75
2018-09-28T07:41:52.140Z,21.55
2018-09-28T07:44:20.631Z,18.75
2018-09-28T07:46:48.962Z,17.47
2018-09-28T07:49:17.356Z,12.53
2018-09-28T07:51:45.635Z,14.07
2018-09-28T07:54:14.048Z,17.87
2018-09-28T07:56:42.556Z,12.53
2018-09-28T07:59:10.903Z,11.73
2018-09-28T08:01:39.226Z,9.40
2018-09-28T08:04:07.925Z,13.88
2018-09-28T08:09:18.207Z,14.75
2018-09-28T08:11:47.068Z,14.53
2018-09-28T08:14:15.397Z,18.12
2018-09-28T08:16:44.032Z,16.87
2018-09-28T08:19:12.400Z,21.57
2018-09-28T08:21:40.776Z,17.50
2018-09-28T08:24:09.213Z,15.13
2018-09-28T08:26:37.691Z,19.15
2018-09-28T08:29:06.290Z,17.23
2018-09-28T08:31:34.733Z,17.40
2018-09-28T08:34:03.117Z,13.95
2018-09-28T08:36:31.558Z,14.83
2018-09-28T08:38:59.827Z,12.68
2018-09-28T08:41:28.233Z,14.05
2018-09-28T08:43:56.674Z,21.83
2018-09-28T08:46:25.010Z,17.35
2018-09-28T08:48:53.326Z,15.32
2018-09-28T08:51:21.702Z,17.12
2018-09-28T08:53:50.309Z,16.65
2018-09-28T08:56:18.689Z,15.13
2018-09-28T08:58:47.336Z,20.68
2018-09-28T09:01:15.801Z,13.53
2018-09-28T09:03:44.267Z,20.65
2018-09-28T09:06:12.823Z,17.30
2018-09-28T09:08:41.209Z,15.85
2018-09-28T09:11:09.561Z,13.40
2018-09-28T09:13:38.240Z,17.77
2018-09-28T09:16:06.625Z,19.80
2018-09-28T09:18:35.966Z,15.80
2018-09-28T09:21:04.427Z,22.17
2018-09-28T09:23:32.845Z,15.80
2018-09-28T09:26:01.314Z,15.20
2018-09-28T09:28:30.248Z,20.20
2018-09-28T09:30:58.607Z,13.98
2018-09-28T09:33:27.096Z,19.52
2018-09-28T09:35:55.731Z,15.23
2018-09-28T09:38:24.232Z,17.12
2018-09-28T09:40:52.711Z,18.90
2018-09-28T09:43:21.117Z,22.42
2018-09-28T09:45:49.489Z,18.80
2018-09-28T09:48:17.922Z,14.53
2018-09-28T09:50:46.339Z,19.82
2018-09-28T09:53:14.824Z,17.00
2018-09-28T09:55:43.189Z,19.52
2018-09-28T09:58:13.556Z,20.17
2018-09-28T10:00:48.501Z,15.88
2018-09-28T10:03:22.042Z,16.60
2018-09-28T10:05:50.431Z,23.40
2018-09-28T10:08:19.044Z,19.67
2018-09-28T10:10:47.413Z,13.63
2018-09-28T10:13:15.873Z,20.70
2018-09-28T10:15:44.265Z,17.15
2018-09-28T10:18:12.593Z,14.80
2018-09-28T10:20:40.931Z,13.65
2018-09-28T10:23:09.408Z,20.10
2018-09-28T10:25:37.740Z,18.42
2018-09-28T10:28:06.252Z,16.67
2018-09-28T10:30:34.545Z,22.13
2018-09-28T10:33:02.914Z,14.13
2018-09-28T10:35:31.218Z,24.47
2018-09-28T10:37:59.809Z,16.05
2018-09-28T10:40:29.477Z,16.07
2018-09-28T10:42:57.707Z,19.40
2018-09-28T10:45:26.089Z,15.63
2018-09-28T10:47:54.415Z,18.37
2018-09-28T10:50:22.763Z,19.57
2018-09-28T10:52:51.170Z,21.80
2018-09-28T10:55:19.459Z,17.48
2018-09-28T10:57:47.848Z,14.35
2018-09-28T11:00:16.336Z,18.37
2018-09-28T11:02:44.733Z,16.35
2018-09-28T11:05:13.122Z,15.68
2018-09-28T11:07:41.651Z,16.37
2018-09-28T11:10:10.169Z,18.57
2018-09-28T11:12:38.561Z,18.10
2018-09-28T11:15:06.960Z,17.92
2018-09-28T11:17:35.284Z,21.20
2018-09-28T11:20:04.531Z,16.60
2018-09-28T11:22:32.932Z,19.60
2018-09-28T11:25:01.298Z,21.50
2018-09-28T11:27:29.652Z,19.77
2018-09-28T11:29:58.056Z,14.10
2018-09-28T11:32:26.392Z,17.50
2018-09-28T11:34:54.739Z,19.42
2018-09-28T11:37:23.067Z,20.05
2018-09-28T11:39:51.438Z,11.93
2018-09-28T11:42:19.812Z,15.78
2018-09-28T11:44:48.122Z,21.10
2018-09-28T11:47:16.481Z,16.48
2018-09-28T11:49:44.826Z,21.53
2018-09-28T11:52:13.182Z,14.57
2018-09-28T11:54:42.103Z,27.73
2018-09-28T11:57:10.471Z,13.60
2018-09-28T11:59:38.822Z,17.00
2018-09-28T12:02:07.605Z,22.00
2018-09-28T12:04:35.953Z,18.67
2018-09-28T12:07:04.333Z,22.50
2018-09-28T12:09:32.709Z,18.87
2018-09-28T12:12:01.077Z,18.57
2018-09-28T12:14:29.444Z,24.00
2018-09-28T12:16:57.772Z,17.20
2018-09-28T12:19:26.141Z,22.80
2018-09-28T12:21:54.492Z,15.45
2018-09-28T12:24:23.050Z,17.60
2018-09-28T12:26:51.441Z,16.77
2018-09-28T12:29:19.765Z,23.42
2018-09-28T12:31:48.213Z,16.02
2018-09-28T12:34:16.550Z,12.20
2018-09-28T12:36:45.023Z,9.40
2018-09-28T12:39:13.677Z,11.38
2018-09-28T12:41:42.457Z,10.75
2018-09-28T12:44:12.073Z,17.05
2018-09-28T12:46:40.432Z,12.75
2018-09-28T12:49:08.804Z,21.62
2018-09-28T12:51:37.259Z,13.65
2018-09-28T12:54:05.890Z,15.37
2018-09-28T12:56:34.316Z,11.75
2018-09-28T12:59:02.674Z,13.43
2018-09-28T13:01:31.013Z,14.93
2018-09-28T13:03:59.351Z,13.43
2018-09-28T13:06:27.723Z,13.40
2018-09-28T13:08:56.056Z,9.17
2018-09-28T13:11:24.403Z,12.35
2018-09-28T13:13:52.769Z,9.15
2018-09-28T13:16:21.159Z,14.55
2018-09-28T13:18:49.585Z,8.20
2018-09-28T13:21:17.941Z,15.03
2018-09-28T13:23:46.279Z,12.57
2018-09-28T13:26:14.645Z,13.57
2018-09-28T13:28:42.981Z,10.93
2018-09-28T13:31:11.301Z,13.90
2018-09-28T13:33:39.716Z,11.60
2018-09-28T13:36:08.168Z,8.53
2018-09-28T13:38:36.663Z,10.13
2018-09-28T13:41:04.879Z,13.98
2018-09-28T13:43:33.225Z,10.53
2018-09-28T13:46:01.803Z,10.23
2018-09-28T13:48:30.163Z,12.05
2018-09-28T13:50:58.498Z,13.28
2018-09-28T13:53:26.860Z,10.55
2018-09-28T13:55:55.196Z,9.50
2018-09-28T13:58:23.611Z,11.55
2018-09-28T14:00:51.954Z,13.13
2018-09-28T14:03:20.319Z,11.33
2018-09-28T14:05:48.650Z,7.00
2018-09-28T14:08:17.028Z,6.40
2018-09-28T14:10:45.376Z,7.30
2018-09-28T14:13:13.876Z,9.95
2018-09-28T14:15:42.198Z,9.25
2018-09-28T14:18:10.616Z,11.48
2018-09-28T14:20:38.961Z,10.00
2018-09-28T14:23:07.303Z,9.98
2018-09-28T14:25:35.777Z,12.68
2018-09-28T14:28:04.309Z,9.70
2018-09-28T14:30:32.625Z,14.00
2018-09-28T14:33:00.980Z,14.83
2018-09-28T14:35:29.371Z,9.75
2018-09-28T14:37:57.723Z,12.80
2018-09-28T14:40:26.128Z,17.60
2018-09-28T14:42:55.642Z,9.50
2018-09-28T14:45:24.001Z,9.78
2018-09-28T14:47:52.434Z,11.63
2018-09-28T14:50:20.833Z,8.93
2018-09-28T14:52:49.230Z,9.23
2018-09-28T14:55:18.931Z,9.90
2018-09-28T14:57:47.291Z,12.33
2018-09-28T15:00:15.714Z,7.10
2018-09-28T15:02:44.111Z,16.50
2018-09-28T15:05:12.948Z,8.88
2018-09-28T15:07:41.329Z,12.53
2018-09-28T15:10:09.728Z,9.30
2018-09-28T15:12:38.159Z,11.00
2018-09-28T15:15:06.699Z,7.10
2018-09-28T15:17:35.092Z,7.93
2018-09-28T15:20:03.436Z,6.90
2018-09-28T15:22:31.807Z,8.58
2018-09-28T15:25:00.145Z,9.38
2018-09-28T15:27:28.491Z,9.40
2018-09-28T15:29:56.837Z,7.45
2018-09-28T15:32:25.195Z,8.38
2018-09-28T15:34:53.518Z,9.00
2018-09-28T15:37:21.813Z,8.55
2018-09-28T15:39:50.167Z,6.40
2018-09-28T15:42:18.534Z,9.63
2018-09-28T15:44:46.892Z,5.10
2018-09-28T15:47:15.191Z,5.55
2018-09-28T15:49:43.541Z,7.35
2018-09-28T15:52:11.860Z,6.42
2018-09-28T15:54:40.228Z,5.80
2018-09-28T15:57:09.845Z,6.05
2018-09-28T15:59:38.223Z,12.07
2018-09-28T16:02:06.970Z,6.78
2018-09-28T16:04:35.341Z,7.50
2018-09-28T16:07:03.768Z,4.08
2018-09-28T16:09:32.249Z,7.93
2018-09-28T16:12:00.577Z,7.80
2018-09-28T16:14:28.956Z,7.95
2018-09-28T16:16:57.366Z,7.17
2018-09-28T16:19:26.094Z,3.80
2018-09-28T16:21:54.464Z,6.80
2018-09-28T16:24:22.809Z,7.95
2018-09-28T16:26:51.136Z,6.62
2018-09-28T16:29:19.502Z,5.85
2018-09-28T16:31:47.858Z,9.43
2018-09-28T16:34:16.216Z,7.20
2018-09-28T16:36:44.544Z,8.50
2018-09-28T16:39:13.093Z,8.90
2018-09-28T16:41:42.003Z,6.03
2018-09-28T16:44:10.371Z,9.23
2018-09-28T16:46:38.722Z,8.20
2018-09-28T16:49:07.056Z,10.45
2018-09-28T16:51:35.423Z,11.63
2018-09-28T16:54:04.537Z,10.90
2018-09-28T16:56:32.891Z,7.95
2018-09-28T16:59:01.323Z,9.53
2018-09-28T17:01:29.715Z,10.00
2018-09-28T17:03:58.027Z,8.55
2018-09-28T17:06:26.425Z,5.23
2018-09-28T17:08:54.767Z,5.70
2018-09-28T17:11:23.079Z,10.32
2018-09-28T17:13:51.427Z,8.25
2018-09-28T17:16:19.759Z,7.37
2018-09-28T17:18:48.106Z,5.08
2018-09-28T17:21:16.436Z,6.83
2018-09-28T17:23:44.772Z,6.87
2018-09-28T17:26:13.093Z,8.87
2018-09-28T17:28:41.510Z,7.50
2018-09-28T17:31:09.809Z,5.78
2018-09-28T17:33:38.165Z,6.00
2018-09-28T17:36:06.475Z,5.90
2018-09-28T17:38:34.788Z,4.58
2018-09-28T17:41:03.104Z,10.75
2018-09-28T17:43:31.431Z,7.22
2018-09-28T17:45:59.791Z,10.20
2018-09-28T17:48:28.200Z,7.40
2018-09-28T17:50:56.497Z,9.00
2018-09-28T17:53:25.353Z,10.85
2018-09-28T17:55:53.648Z,9.50
2018-09-28T17:58:21.996Z,9.67
2018-09-28T18:00:50.351Z,7.40
2018-09-28T18:03:18.661Z,6.37
2018-09-28T18:05:47.008Z,11.12
2018-09-28T18:08:15.361Z,12.95
2018-09-28T18:10:43.768Z,10.55
2018-09-28T18:13:12.064Z,8.98
2018-09-28T18:15:40.345Z,8.43
2018-09-28T18:18:08.666Z,8.33
2018-09-28T18:20:36.973Z,8.03
2018-09-28T18:23:06.135Z,12.20
2018-09-28T18:25:35.168Z,10.13
2018-09-28T18:28:03.493Z,10.37
2018-09-28T18:30:31.826Z,6.33
2018-09-28T18:33:00.148Z,8.40
2018-09-28T18:35:28.874Z,9.33
2018-09-28T18:37:57.216Z,7.17
2018-09-28T18:40:25.835Z,9.93
2018-09-28T18:42:54.156Z,9.05
2018-09-28T18:45:22.553Z,8.25
2018-09-28T18:47:50.847Z,6.07
2018-09-28T18:50:19.175Z,7.92
2018-09-28T18:52:47.455Z,9.80
2018-09-28T18:55:15.797Z,10.10
2018-09-28T18:57:44.108Z,8.10
2018-09-28T19:00:12.412Z,11.97
2018-09-28T19:02:40.893Z,15.27
2018-09-28T19:05:09.416Z,11.28
2018-09-28T19:07:37.775Z,12.50
2018-09-28T19:10:06.288Z,10.68
2018-09-28T19:12:49.541Z,12.53
2018-09-28T19:15:21.598Z,9.45
2018-09-28T19:17:50.128Z,11.88
2018-09-28T19:20:18.461Z,8.53
2018-09-28T19:22:46.983Z,10.20
2018-09-28T19:25:15.311Z,10.20
2018-09-28T19:27:43.638Z,7.72
2018-09-28T19:30:11.990Z,7.28
2018-09-28T19:32:40.520Z,9.63
2018-09-28T19:35:08.876Z,9.27
2018-09-28T19:37:37.996Z,15.20
2018-09-28T19:40:06.343Z,9.03
2018-09-28T19:42:34.633Z,7.20
2018-09-28T19:45:02.958Z,7.45
2018-09-28T19:47:31.582Z,12.98
2018-09-28T19:49:59.927Z,10.08
2018-09-28T19:52:28.496Z,8.53
2018-09-28T19:54:56.918Z,10.82
2018-09-28T19:57:25.200Z,9.13
2018-09-28T19:59:53.509Z,10.70
2018-09-28T20:02:21.857Z,8.80
2018-09-28T20:04:50.167Z,13.18
2018-09-28T20:07:18.443Z,8.35
2018-09-28T20:09:46.804Z,14.70
2018-09-28T20:12:15.109Z,7.08
2018-09-28T20:14:47.238Z,10.13
2018-09-28T20:17:15.539Z,7.95
2018-09-28T20:19:43.846Z,9.90
2018-09-28T20:22:13.681Z,9.95
2018-09-28T20:24:41.985Z,9.78
2018-09-28T20:27:10.354Z,8.67
2018-09-28T20:29:38.687Z,9.78
2018-09-28T20:32:07.046Z,11.70
2018-09-28T20:34:35.385Z,9.38
2018-09-28T20:37:03.862Z,8.00
2018-09-28T20:39:32.139Z,7.70
2018-09-28T20:42:00.469Z,8.90
2018-09-28T20:44:28.820Z,13.30
2018-09-28T20:46:57.311Z,10.13
2018-09-28T20:49:25.647Z,15.28
2018-09-28T20:51:53.958Z,12.58
2018-09-28T20:54:22.253Z,9.30
2018-09-28T20:56:50.653Z,8.00
2018-09-28T20:59:19.212Z,9.90
2018-09-28T21:01:47.480Z,9.03
2018-09-28T21:04:15.846Z,10.20
2018-09-28T21:06:44.208Z,11.93
2018-09-28T21:09:12.564Z,12.33
2018-09-28T21:11:40.895Z,6.72
2018-09-28T21:14:09.208Z,13.30
2018-09-28T21:16:37.538Z,9.95
2018-09-28T21:19:05.887Z,5.72
2018-09-28T21:21:34.247Z,9.50
2018-09-28T21:24:02.560Z,10.63
2018-09-28T21:26:30.919Z,9.90
2018-09-28T21:28:59.334Z,10.70
2018-09-28T21:31:27.650Z,9.98
2018-09-28T21:33:55.944Z,8.93
2018-09-28T21:36:24.236Z,11.22
2018-09-28T21:38:52.536Z,8.93
2018-09-28T21:41:20.904Z,15.58
2018-09-28T21:43:49.249Z,7.40
2018-09-28T21:46:17.540Z,7.03
2018-09-28T21:48:45.887Z,8.65
2018-09-28T21:51:14.180Z,12.75
2018-09-28T21:53:42.563Z,10.82
2018-09-28T21:56:10.941Z,13.30
2018-09-28T21:58:39.262Z,14.70
2018-09-28T22:01:07.814Z,13.88
2018-09-28T22:03:36.157Z,13.90
2018-09-28T22:06:04.545Z,11.73
2018-09-28T22:08:32.852Z,7.90
2018-09-28T22:11:01.193Z,8.35
2018-09-28T22:13:53.425Z,14.87
2018-09-28T22:16:22.336Z,11.97
2018-09-28T22:18:50.653Z,19.73
2018-09-28T22:21:18.968Z,6.53
2018-09-28T22:23:47.313Z,10.03
2018-09-28T22:26:15.619Z,11.50
2018-09-28T22:28:43.928Z,10.65
2018-09-28T22:31:12.281Z,10.68
2018-09-28T22:33:40.613Z,11.40
2018-09-28T22:36:08.957Z,6.90
2018-09-28T22:38:37.254Z,9.40
2018-09-28T22:41:05.610Z,7.87
2018-09-28T22:43:34.128Z,12.35
2018-09-28T22:46:02.470Z,12.23
2018-09-28T22:48:30.772Z,8.60
2018-09-28T22:50:59.057Z,7.00
2018-09-28T22:53:27.566Z,9.03
2018-09-28T22:55:55.896Z,10.18
2018-09-28T22:58:24.211Z,10.85
2018-09-28T23:00:52.532Z,8.07
2018-09-28T23:03:20.856Z,13.08
2018-09-28T23:05:49.138Z,9.23
2018-09-28T23:08:17.520Z,9.65
2018-09-28T23:10:45.855Z,7.42
2018-09-28T23:13:14.191Z,10.95
2018-09-28T23:15:42.480Z,10.28
2018-09-28T23:18:10.866Z,9.95
2018-09-28T23:20:39.166Z,14.83
2018-09-28T23:23:07.453Z,8.48
2018-09-28T23:25:35.758Z,12.13
2018-09-28T23:28:04.089Z,8.33
2018-09-28T23:30:32.383Z,8.05
2018-09-28T23:33:00.697Z,11.48
2018-09-28T23:35:29.128Z,15.38
2018-09-28T23:37:57.585Z,8.50
2018-09-28T23:40:25.890Z,8.28
2018-09-28T23:42:54.331Z,9.80
2018-09-28T23:45:23.044Z,10.80
2018-09-28T23:47:51.364Z,11.73
2018-09-28T23:50:19.651Z,9.80
2018-09-28T23:52:47.954Z,11.40
2018-09-28T23:55:16.262Z,8.55
2018-09-28T23:57:44.650Z,12.28
